createdAt,value
2023-03-01T00:25:08.275Z,152.84
2023-03-01T00:26:08.100Z,152.14
2023-03-01T00:27:07.935Z,147.83
2023-03-01T00:28:07.953Z,152.48
2023-03-01T00:29:07.611Z,149.52
2023-03-01T00:30:07.439Z,152.05
2023-03-01T00:31:07.307Z,150.60
2023-03-01T00:32:07.131Z,151.59
2023-03-01T00:33:06.931Z,153.95
2023-03-01T00:34:06.783Z,151.74
2023-03-01T00:35:06.602Z,151.20
2023-03-01T00:36:06.458Z,150.05
2023-03-01T00:37:06.313Z,154.61
2023-03-01T00:38:06.110Z,151.47
2023-03-01T00:39:05.943Z,151.17
2023-03-01T00:40:05.782Z,151.38
2023-03-01T00:41:05.615Z,152.43
2023-03-01T00:42:05.466Z,150.52
2023-03-01T00:43:05.309Z,151.58
2023-03-01T00:44:05.144Z,150.50
2023-03-01T00:45:04.981Z,152.52
2023-03-01T00:46:04.839Z,148.74
2023-03-01T00:47:04.677Z,152.21
2023-03-01T00:48:04.524Z,152.16
2023-03-01T00:49:04.381Z,151.96
2023-03-01T00:50:04.241Z,149.39
2023-03-01T00:51:04.045Z,150.86
2023-03-01T00:52:03.871Z,150.83
2023-03-01T00:53:03.716Z,153.10
2023-03-01T00:54:03.565Z,152.05
2023-03-01T00:55:03.391Z,151.70
2023-03-01T01:34:56.904Z,147.30
2023-03-01T01:35:56.796Z,149.73
2023-03-01T01:36:56.586Z,149.45
2023-03-01T01:37:56.424Z,150.33
2023-03-01T01:38:56.263Z,149.58
2023-03-01T01:39:56.100Z,150.16
2023-03-01T01:40:55.945Z,149.75
2023-03-01T01:41:55.781Z,146.91
2023-03-01T01:42:55.613Z,149.01
2023-03-01T01:43:55.444Z,149.88
2023-03-01T01:44:55.288Z,147.94
2023-03-01T01:45:55.124Z,149.55
2023-03-01T01:46:54.978Z,151.07
2023-03-01T01:47:54.800Z,147.88
2023-03-01T01:48:54.641Z,147.71
2023-03-01T01:49:54.470Z,147.14
2023-03-01T01:50:54.310Z,148.26
2023-03-01T01:51:54.157Z,151.29
2023-03-01T01:52:53.985Z,149.50
2023-03-01T01:53:53.829Z,149.42
2023-03-01T01:54:53.677Z,146.41
2023-03-01T01:55:53.509Z,149.01
2023-03-01T01:56:53.355Z,149.05
2023-03-01T01:59:52.868Z,148.84
2023-03-01T02:00:52.708Z,148.32
2023-03-01T02:01:52.562Z,149.46
2023-03-01T02:02:52.544Z,149.22
2023-03-01T02:03:52.330Z,149.24
2023-03-01T02:04:52.078Z,148.82
2023-03-01T02:05:55.547Z,149.45
2023-03-01T02:06:51.750Z,149.98
2023-03-01T02:07:51.592Z,150.19
2023-03-01T02:08:51.422Z,149.45
2023-03-01T02:09:51.262Z,147.98
2023-03-01T02:10:51.096Z,149.60
2023-03-01T02:11:50.938Z,147.80
2023-03-01T02:12:50.757Z,149.19
2023-03-01T02:13:50.592Z,146.52
2023-03-01T02:14:50.417Z,148.03
2023-03-01T02:15:50.274Z,144.62
2023-03-01T02:16:50.098Z,150.79
2023-03-01T02:17:49.930Z,144.74
2023-03-01T02:18:49.808Z,150.15
2023-03-01T02:19:49.592Z,149.01
2023-03-01T02:20:49.432Z,149.45
2023-03-01T02:21:49.274Z,149.68
2023-03-01T02:22:49.103Z,147.52
2023-03-01T02:23:48.931Z,148.56
2023-03-01T02:24:48.769Z,147.68
2023-03-01T02:25:48.606Z,148.14
2023-03-01T02:26:48.444Z,145.96
2023-03-01T02:27:48.271Z,147.76
2023-03-01T02:28:48.106Z,145.93
2023-03-01T02:29:47.939Z,147.70
2023-03-01T02:30:47.766Z,146.19
2023-03-01T02:31:47.708Z,145.85
2023-03-01T02:32:47.426Z,148.99
2023-03-01T02:33:47.269Z,150.35
2023-03-01T02:34:47.105Z,147.02
2023-03-01T02:35:46.935Z,145.25
2023-03-01T02:36:46.762Z,150.26
2023-03-01T02:37:46.614Z,146.69
2023-03-01T02:38:46.408Z,147.32
2023-03-01T02:39:46.228Z,146.59
2023-03-01T02:40:46.061Z,149.55
2023-03-01T02:41:45.894Z,148.86
2023-03-01T02:42:45.720Z,148.33
2023-03-01T02:43:45.542Z,148.60
2023-03-01T02:44:45.371Z,150.53
2023-03-01T02:54:43.647Z,149.76
2023-03-01T02:55:43.482Z,148.06
2023-03-01T04:28:03.342Z,30.73
2023-03-01T04:29:03.402Z,29.28
2023-03-01T04:30:03.459Z,31.03
2023-03-01T04:31:03.515Z,31.42
2023-03-01T04:32:03.704Z,28.97
2023-03-01T04:33:03.672Z,31.11
2023-03-01T04:34:03.719Z,30.39
2023-03-01T04:35:03.737Z,30.18
2023-03-01T04:36:03.929Z,32.39
2023-03-01T04:37:03.837Z,32.72
2023-03-01T04:38:03.898Z,31.31
2023-03-01T04:39:03.952Z,31.14
2023-03-01T04:40:03.987Z,27.21
2023-03-01T04:41:04.064Z,29.11
2023-03-01T04:42:04.133Z,30.09
2023-03-01T04:43:04.198Z,30.80
2023-03-01T04:44:04.274Z,30.68
2023-03-01T04:45:04.398Z,29.03
2023-03-01T04:46:04.427Z,27.69
2023-03-01T04:47:04.438Z,31.84
2023-03-01T04:48:04.498Z,30.95
2023-03-01T04:49:04.548Z,28.96
2023-03-01T04:50:04.583Z,29.82
2023-03-01T04:51:04.632Z,31.13
2023-03-01T04:52:04.689Z,29.96
2023-03-01T04:53:04.752Z,29.24
2023-03-01T04:54:04.774Z,30.34
2023-03-01T04:55:04.816Z,31.88
2023-03-01T04:56:04.870Z,30.04
2023-03-01T04:57:04.909Z,27.86
2023-03-01T04:58:04.960Z,29.96
2023-03-01T04:59:05.012Z,30.77
2023-03-01T05:00:05.069Z,30.43
2023-03-01T05:01:05.107Z,30.59
2023-03-01T05:02:05.162Z,32.19
2023-03-01T05:03:05.264Z,28.56
2023-03-01T05:04:05.305Z,28.65
2023-03-01T05:05:05.331Z,34.06
2023-03-01T05:06:05.358Z,30.74
2023-03-01T05:07:05.387Z,28.51
2023-03-01T05:08:05.420Z,28.35
2023-03-01T05:09:05.453Z,29.36
2023-03-01T05:10:05.489Z,31.21
2023-03-01T05:11:05.564Z,30.85
2023-03-01T05:12:05.635Z,30.57
2023-03-01T05:13:05.733Z,30.59
2023-03-01T05:14:05.790Z,29.16
2023-03-01T05:15:05.857Z,30.02
2023-03-01T05:16:05.945Z,27.97
2023-03-01T05:17:05.921Z,29.88
2023-03-01T05:18:05.928Z,29.12
2023-03-01T05:19:05.961Z,26.52
2023-03-01T05:20:05.976Z,27.27
2023-03-01T05:21:06.001Z,31.35
2023-03-01T05:22:06.069Z,31.84
2023-03-01T05:23:06.213Z,28.43
2023-03-01T05:24:06.151Z,32.75
2023-03-01T05:25:06.193Z,29.64
2023-03-01T05:26:07.592Z,30.54
2023-03-01T05:27:06.254Z,31.66
2023-03-01T05:28:06.262Z,28.84
2023-03-01T05:29:06.272Z,31.40
2023-03-01T05:30:06.285Z,30.50
2023-03-01T05:31:06.359Z,29.71
2023-03-01T05:32:06.367Z,30.93
2023-03-01T05:33:06.333Z,31.42
2023-03-01T05:34:06.345Z,30.08
2023-03-01T05:35:06.377Z,28.58
2023-03-01T05:36:06.400Z,27.30
2023-03-01T05:37:06.419Z,27.73
2023-03-01T05:38:06.492Z,29.99
2023-03-01T05:47:06.618Z,29.25
2023-03-01T06:53:08.125Z,118.36
2023-03-01T07:04:08.316Z,118.57
2023-03-01T07:05:08.351Z,117.15
2023-03-01T07:06:08.376Z,117.79
2023-03-01T07:07:08.421Z,116.38
2023-03-01T07:08:08.421Z,117.53
2023-03-01T07:09:08.450Z,116.75
2023-03-01T07:10:08.486Z,116.78
2023-03-01T07:11:08.509Z,115.41
2023-03-01T07:12:08.569Z,118.16
2023-03-01T07:13:08.558Z,116.43
2023-03-01T07:14:08.631Z,116.59
2023-03-01T07:15:08.686Z,117.48
2023-03-01T07:16:08.800Z,118.08
2023-03-01T07:17:08.676Z,115.57
2023-03-01T07:18:08.679Z,118.19
2023-03-01T07:19:08.722Z,115.30
2023-03-01T07:20:08.714Z,117.26
2023-03-01T07:22:08.827Z,121.81
2023-03-01T07:23:08.782Z,121.63
2023-03-01T07:24:08.803Z,119.86
2023-03-01T07:25:08.861Z,118.57
2023-03-01T07:26:08.856Z,133.46
2023-03-01T07:27:08.943Z,128.98
2023-03-01T07:28:08.904Z,128.76
2023-03-01T07:29:08.928Z,133.86
2023-03-01T07:30:08.941Z,140.55
2023-03-01T07:31:08.998Z,141.78
2023-03-01T07:32:09.039Z,151.93
2023-03-01T07:33:09.147Z,149.84
2023-03-01T09:04:14.022Z,248.67
2023-03-01T09:06:14.016Z,249.24
2023-03-01T09:07:14.058Z,250.00
2023-03-01T09:08:14.085Z,247.24
2023-03-01T09:44:14.555Z,250.00
2023-03-01T11:06:17.717Z,184.37
2023-03-01T11:07:17.781Z,183.97
2023-03-01T11:08:17.826Z,185.50
2023-03-01T11:09:17.886Z,185.78
2023-03-01T11:10:17.962Z,185.12
2023-03-01T11:15:18.238Z,184.06
2023-03-01T13:49:31.439Z,136.73
2023-03-01T13:50:28.748Z,136.88
2023-03-01T13:51:27.758Z,137.23
2023-03-01T13:52:27.759Z,136.98
2023-03-01T13:53:27.761Z,136.74
2023-03-01T13:54:27.757Z,136.17
2023-03-01T13:55:27.757Z,136.85
2023-03-01T13:56:27.764Z,138.71
2023-03-01T13:57:27.837Z,139.22
2023-03-01T13:58:27.786Z,135.73
2023-03-01T13:59:27.816Z,135.67
2023-03-01T14:00:27.895Z,135.68
2023-03-01T14:01:28.070Z,133.87
2023-03-01T14:02:28.033Z,133.72
2023-03-01T14:03:28.156Z,134.96
2023-03-01T14:04:28.188Z,134.41
2023-03-01T14:05:28.270Z,136.04
2023-03-01T14:06:28.340Z,133.92
2023-03-01T14:07:28.411Z,135.89
2023-03-01T14:08:28.477Z,133.09
2023-03-01T14:09:28.583Z,133.81
2023-03-01T14:10:28.586Z,133.29
2023-03-01T14:11:28.643Z,130.97
2023-03-01T14:12:28.716Z,130.82
2023-03-01T14:13:28.812Z,131.24
2023-03-01T14:14:28.860Z,131.18
2023-03-01T14:15:28.998Z,130.75
2023-03-01T14:16:29.133Z,133.37
2023-03-01T14:17:29.104Z,133.05
2023-03-01T14:18:29.195Z,130.28
2023-03-01T14:19:33.895Z,129.08
2023-03-01T14:20:29.255Z,129.39
2023-03-01T14:21:29.251Z,129.70
2023-03-01T14:22:29.298Z,130.46
2023-03-01T14:23:29.256Z,130.43
2023-03-01T14:24:29.264Z,131.53
2023-03-01T14:25:29.277Z,129.16
2023-03-01T14:26:29.465Z,129.33
2023-03-01T14:27:29.318Z,130.36
2023-03-01T14:28:29.352Z,130.81
2023-03-01T14:29:29.357Z,130.57
2023-03-01T14:30:29.426Z,128.74
2023-03-01T14:31:29.595Z,127.81
2023-03-01T14:32:29.668Z,128.95
2023-03-01T14:33:29.646Z,127.62
2023-03-01T14:34:29.721Z,128.76
2023-03-01T14:35:29.837Z,127.03
2023-03-01T14:36:30.138Z,127.45
2023-03-01T14:37:29.918Z,128.15
2023-03-01T14:38:30.000Z,126.04
2023-03-01T14:39:30.070Z,127.62
2023-03-01T14:40:30.161Z,127.08
2023-03-01T14:41:30.229Z,127.13
2023-03-01T14:42:30.309Z,126.78
2023-03-01T14:43:30.394Z,127.90
2023-03-01T14:45:30.561Z,123.51
2023-03-01T14:46:31.049Z,125.09
2023-03-01T14:47:30.754Z,127.04
2023-03-01T14:48:30.765Z,126.42
2023-03-01T14:49:30.847Z,123.32
2023-03-01T16:17:35.592Z,111.60
2023-03-01T16:19:35.637Z,110.88
2023-03-01T16:20:35.662Z,113.35
2023-03-01T16:21:35.697Z,113.10
2023-03-01T16:22:35.723Z,112.39
2023-03-01T16:23:35.760Z,114.29
2023-03-01T16:24:35.784Z,111.63
2023-03-01T16:25:35.821Z,111.75
2023-03-01T17:11:38.387Z,104.30
2023-03-01T17:18:37.731Z,104.54
2023-03-01T17:19:37.752Z,105.72
2023-03-01T17:20:37.783Z,105.51
2023-03-01T17:21:37.806Z,105.25
2023-03-01T17:22:37.850Z,104.78
2023-03-01T17:23:37.878Z,107.09
2023-03-01T17:24:37.975Z,105.78
2023-03-01T17:25:37.952Z,105.25
2023-03-01T17:26:37.974Z,106.26
2023-03-01T17:27:38.017Z,103.69
2023-03-01T17:28:38.039Z,106.79
2023-03-01T17:29:38.087Z,104.35
2023-03-01T17:30:38.097Z,108.59
2023-03-01T17:31:38.160Z,104.66
2023-03-01T17:32:38.333Z,105.18
2023-03-01T17:33:38.197Z,104.73
2023-03-01T17:34:38.249Z,104.31
2023-03-01T17:35:38.395Z,103.79
2023-03-01T17:36:38.302Z,104.40
2023-03-01T17:37:38.324Z,103.85
2023-03-01T17:38:38.366Z,103.98
2023-03-01T17:39:38.406Z,103.35
2023-03-01T17:40:38.430Z,101.24
2023-03-01T17:41:38.465Z,104.79
2023-03-01T17:42:38.496Z,103.99
2023-03-01T17:43:38.519Z,102.23
2023-03-01T17:44:38.563Z,102.88
2023-03-01T17:45:38.632Z,100.78
2023-03-01T17:46:38.616Z,104.00
2023-03-01T17:47:38.660Z,102.81
2023-03-01T17:48:38.690Z,103.44
2023-03-01T17:49:38.721Z,103.76
2023-03-01T17:50:38.956Z,102.41
2023-03-01T17:51:38.778Z,103.89
2023-03-01T17:52:38.825Z,100.18
2023-03-01T17:53:38.863Z,102.43
2023-03-01T17:54:38.955Z,102.94
2023-03-01T17:55:38.918Z,103.98
2023-03-01T17:56:38.985Z,103.28
2023-03-01T17:57:39.651Z,103.52
2023-03-01T17:58:39.039Z,101.87
2023-03-01T17:59:39.069Z,101.55
2023-03-01T18:00:39.129Z,102.33
2023-03-01T18:01:39.269Z,101.56
2023-03-01T18:02:39.277Z,100.90
2023-03-01T18:03:39.216Z,101.66
2023-03-01T18:04:39.258Z,102.02
2023-03-01T18:05:39.299Z,101.11
2023-03-01T18:06:39.337Z,101.31
2023-03-01T18:07:39.375Z,99.82
2023-03-01T18:08:39.398Z,101.17
2023-03-01T18:09:39.441Z,101.60
2023-03-01T18:10:39.474Z,100.76
2023-03-01T18:11:39.517Z,98.68
2023-03-01T18:12:39.536Z,101.96
2023-03-01T18:13:39.630Z,103.90
2023-03-01T18:14:39.611Z,100.77
2023-03-01T18:15:39.652Z,100.47
2023-03-01T18:16:39.736Z,100.08
2023-03-01T18:17:39.720Z,100.01
2023-03-01T18:18:39.809Z,101.01
2023-03-01T18:19:39.822Z,101.41
2023-03-01T18:20:39.843Z,98.67
2023-03-01T18:21:39.892Z,99.95
2023-03-01T18:22:39.928Z,100.90
2023-03-01T18:23:39.955Z,101.53
2023-03-01T18:24:40.005Z,98.41
2023-03-01T18:25:40.066Z,99.44
2023-03-01T18:26:40.404Z,99.25
2023-03-01T18:27:40.139Z,97.36
2023-03-01T18:28:40.169Z,99.98
2023-03-01T18:29:40.220Z,101.25
2023-03-01T18:30:40.347Z,97.94
2023-03-01T18:31:40.314Z,98.35
2023-03-01T18:32:40.911Z,98.41
2023-03-01T18:33:40.411Z,100.27
2023-03-01T18:34:40.417Z,98.77
2023-03-01T18:35:40.525Z,99.23
2023-03-01T18:36:41.658Z,98.00
2023-03-01T18:37:40.540Z,103.29
2023-03-01T18:45:40.924Z,98.50
2023-03-01T18:46:40.980Z,97.66
2023-03-01T18:47:40.791Z,99.07
2023-03-01T18:48:40.820Z,98.44
2023-03-01T18:49:40.849Z,97.99
2023-03-01T18:50:40.876Z,96.31
2023-03-01T18:51:40.914Z,100.04
2023-03-01T18:52:40.910Z,98.08
2023-03-01T18:53:40.992Z,95.72
2023-03-01T18:54:41.042Z,97.19
2023-03-01T18:55:40.980Z,98.31
2023-03-01T18:56:41.019Z,95.51
2023-03-01T18:57:41.030Z,97.12
2023-03-01T18:58:41.052Z,97.85
2023-03-01T18:59:41.087Z,96.06
2023-03-01T19:00:41.105Z,98.15
2023-03-01T19:01:41.248Z,95.79
2023-03-01T19:02:41.440Z,97.55
2023-03-01T19:03:41.261Z,98.24
2023-03-01T19:04:41.217Z,96.97
2023-03-01T19:05:41.249Z,97.58
2023-03-01T19:06:41.273Z,97.63
2023-03-01T19:07:41.291Z,97.55
2023-03-01T19:08:41.318Z,96.69
2023-03-01T19:09:41.348Z,95.60
2023-03-01T19:10:41.381Z,96.85
2023-03-01T19:11:41.426Z,96.00
2023-03-01T19:12:41.429Z,96.96
2023-03-01T19:13:41.462Z,97.34
2023-03-01T19:14:41.575Z,95.46
2023-03-01T19:15:41.570Z,97.04
2023-03-01T19:16:41.547Z,95.86
2023-03-01T19:17:42.354Z,94.68
2023-03-01T19:18:41.615Z,95.36
2023-03-01T19:19:41.711Z,94.82
2023-03-01T19:20:41.692Z,93.74
2023-03-01T19:21:41.696Z,95.09
2023-03-01T19:22:41.738Z,95.21
2023-03-01T19:23:41.747Z,94.95
2023-03-01T19:24:41.788Z,96.85
2023-03-01T19:25:41.825Z,97.08
2023-03-01T19:26:41.842Z,94.75
2023-03-01T19:27:41.869Z,95.71
2023-03-01T19:28:41.893Z,93.54
2023-03-01T19:29:41.931Z,97.20
2023-03-01T19:30:41.955Z,93.93
2023-03-01T19:31:41.973Z,94.62
2023-03-01T19:32:42.005Z,94.33
2023-03-01T19:33:42.047Z,96.72
2023-03-01T19:34:42.078Z,96.43
2023-03-01T19:35:42.162Z,93.64
2023-03-01T19:36:42.103Z,94.30
2023-03-01T19:37:42.138Z,91.48
2023-03-01T19:38:42.179Z,93.44
2023-03-01T19:39:42.195Z,95.76
2023-03-01T19:40:42.223Z,94.94
2023-03-01T19:41:42.253Z,94.81
2023-03-01T19:42:42.262Z,93.42
2023-03-01T19:43:42.293Z,93.41
2023-03-01T19:44:42.303Z,94.39
2023-03-01T19:45:42.333Z,95.86
2023-03-01T19:46:42.422Z,93.29
2023-03-01T19:47:42.372Z,94.61
2023-03-01T19:48:42.456Z,91.26
2023-03-01T19:49:42.420Z,90.04
2023-03-01T19:50:42.448Z,93.27
2023-03-01T19:51:42.531Z,93.95
2023-03-01T19:52:42.501Z,93.72
2023-03-01T19:53:42.529Z,95.93
2023-03-01T19:54:42.540Z,94.43
2023-03-01T19:55:42.577Z,94.83
2023-03-01T19:56:42.619Z,93.67
2023-03-01T19:57:42.612Z,94.10
2023-03-01T19:58:42.640Z,91.86
2023-03-01T19:59:42.671Z,92.01
2023-03-01T20:00:42.691Z,91.04
2023-03-01T20:01:42.761Z,90.02
2023-03-01T20:02:42.835Z,93.09
2023-03-01T20:03:42.768Z,95.56
2023-03-01T20:04:42.801Z,92.29
2023-03-01T20:05:42.842Z,93.42
2023-03-01T20:06:42.841Z,93.85
2023-03-01T20:07:44.553Z,91.98
2023-03-01T20:08:42.897Z,90.90
2023-03-01T20:09:43.002Z,91.77
2023-03-01T20:10:42.956Z,93.09
2023-03-01T20:11:42.997Z,92.27
2023-03-01T20:12:43.015Z,92.39
2023-03-01T20:13:43.950Z,93.68
2023-03-01T20:14:43.061Z,93.35
2023-03-01T20:15:43.107Z,93.99
2023-03-01T20:16:43.117Z,90.28
2023-03-01T20:17:43.141Z,93.96
2023-03-01T20:18:43.152Z,94.31
2023-03-01T20:19:43.223Z,90.89
2023-03-01T20:20:43.207Z,92.35
2023-03-01T20:21:43.257Z,88.71
2023-03-01T20:22:43.304Z,90.88
2023-03-01T20:23:43.331Z,89.15
2023-03-01T20:24:43.406Z,94.17
2023-03-01T20:25:43.452Z,90.57
2023-03-01T20:26:43.472Z,90.48
2023-03-01T20:27:43.526Z,89.22
2023-03-01T20:28:43.931Z,90.55
2023-03-01T20:29:43.609Z,89.71
2023-03-01T20:30:43.653Z,87.90
2023-03-01T20:31:43.723Z,88.91
2023-03-01T20:32:43.757Z,89.80
2023-03-01T20:33:43.777Z,87.93
2023-03-01T20:34:43.798Z,88.52
2023-03-01T20:35:44.422Z,89.32
2023-03-01T20:36:43.885Z,88.72
2023-03-01T20:37:43.924Z,88.65
2023-03-01T20:38:43.974Z,88.20
2023-03-01T20:39:44.005Z,87.40
2023-03-01T20:40:44.141Z,87.49
2023-03-01T20:41:44.102Z,88.95
2023-03-01T20:42:44.124Z,87.62
2023-03-01T20:43:44.168Z,89.42
2023-03-01T20:44:44.303Z,87.27
2023-03-01T20:45:44.260Z,88.76
2023-03-01T20:46:44.326Z,86.99
2023-03-01T20:47:44.408Z,87.74
2023-03-01T20:48:44.391Z,88.20
2023-03-01T20:49:44.439Z,86.76
2023-03-01T20:50:44.479Z,89.28
2023-03-01T20:51:44.524Z,86.45
2023-03-01T20:52:47.847Z,87.15
2023-03-01T20:53:44.584Z,89.84
2023-03-01T20:54:44.606Z,90.02
2023-03-01T20:55:44.630Z,89.39
2023-03-01T20:56:44.645Z,88.08
2023-03-01T20:57:44.772Z,87.24
2023-03-01T20:58:44.696Z,88.84
2023-03-01T20:59:44.722Z,87.50
2023-03-01T21:00:44.839Z,85.57
2023-03-01T21:01:44.774Z,87.75
2023-03-01T21:02:44.802Z,87.40
2023-03-01T21:03:44.873Z,87.58
2023-03-01T21:04:44.846Z,84.95
2023-03-01T21:05:44.866Z,86.03
2023-03-01T21:06:44.890Z,85.96
2023-03-01T21:07:44.994Z,89.35
2023-03-01T21:08:45.004Z,86.60
2023-03-01T21:09:44.970Z,86.34
2023-03-01T21:10:44.993Z,88.43
2023-03-01T21:11:45.017Z,86.88
2023-03-01T21:12:45.049Z,85.74
2023-03-01T21:13:45.135Z,85.63
2023-03-01T21:14:45.110Z,85.51
2023-03-01T21:15:45.131Z,83.13
2023-03-01T21:16:45.183Z,85.86
2023-03-01T21:17:45.187Z,85.15
2023-03-01T21:18:45.207Z,85.27
2023-03-01T21:19:45.246Z,85.55
2023-03-01T21:20:45.265Z,84.70
2023-03-01T21:21:45.291Z,82.93
2023-03-01T21:22:45.340Z,86.14
2023-03-01T21:23:45.335Z,85.97
2023-03-01T21:24:45.372Z,84.71
2023-03-01T21:25:45.436Z,85.90
2023-03-01T21:26:45.398Z,84.19
2023-03-01T21:27:45.436Z,84.75
2023-03-01T21:28:45.448Z,83.65
2023-03-01T21:29:45.453Z,84.24
2023-03-01T21:30:45.482Z,85.84
2023-03-01T21:31:45.549Z,85.28
2023-03-01T21:32:45.540Z,82.63
2023-03-01T21:33:45.544Z,82.33
2023-03-01T21:34:45.542Z,83.94
2023-03-01T21:35:45.585Z,84.79
2023-03-01T21:36:45.590Z,83.54
2023-03-01T21:37:45.607Z,84.24
2023-03-01T21:38:45.638Z,86.81
2023-03-01T21:39:45.643Z,83.95
2023-03-01T21:40:45.669Z,82.70
2023-03-01T21:41:45.770Z,81.38
2023-03-01T21:42:45.723Z,86.07
2023-03-01T21:43:45.743Z,84.92
2023-03-01T21:44:45.814Z,86.77
2023-03-01T21:45:45.834Z,83.43
2023-03-01T21:46:45.804Z,83.08
2023-03-01T21:47:45.835Z,84.73
2023-03-01T21:48:45.864Z,81.43
2023-03-01T21:49:45.937Z,82.71
2023-03-01T21:50:45.898Z,81.40
2023-03-01T21:51:45.925Z,85.56
2023-03-01T21:52:45.957Z,79.26
2023-03-01T21:53:45.983Z,82.34
2023-03-01T21:54:45.999Z,83.95
2023-03-01T21:55:46.977Z,82.00
2023-03-01T21:56:46.104Z,82.01
2023-03-01T21:57:46.065Z,82.91
2023-03-01T21:58:46.102Z,84.36
2023-03-01T21:59:46.116Z,80.31
2023-03-01T22:00:46.177Z,80.79
2023-03-01T22:01:46.198Z,81.37
2023-03-01T22:02:46.195Z,81.49
2023-03-01T22:03:46.270Z,81.27
2023-03-01T22:04:46.229Z,81.49
2023-03-01T22:05:46.268Z,82.12
2023-03-01T22:06:46.371Z,80.08
2023-03-01T22:07:46.378Z,78.70
2023-03-01T22:08:46.324Z,78.77
2023-03-01T22:09:46.345Z,81.06
2023-03-01T22:10:46.366Z,81.54
2023-03-01T22:11:46.400Z,78.22
2023-03-01T22:12:46.406Z,80.68
2023-03-01T22:13:46.444Z,79.29
2023-03-01T22:14:46.462Z,77.62
2023-03-01T22:15:46.488Z,75.67
2023-03-01T22:16:46.533Z,78.75
2023-03-01T22:17:46.688Z,78.16
2023-03-01T22:18:46.592Z,79.76
2023-03-01T22:19:46.594Z,80.16
2023-03-01T22:20:46.603Z,79.04
2023-03-01T22:21:46.623Z,79.86
2023-03-01T22:22:46.721Z,80.86
2023-03-01T22:23:46.697Z,81.34
2023-03-01T22:24:46.709Z,77.91
2023-03-01T22:25:46.720Z,76.67
2023-03-01T22:26:46.756Z,79.67
2023-03-01T22:27:46.778Z,78.20
2023-03-01T22:28:46.810Z,76.73
2023-03-01T22:29:47.489Z,78.62
2023-03-01T22:30:46.845Z,78.10
2023-03-01T22:31:46.911Z,75.57
2023-03-01T22:32:46.990Z,76.87
2023-03-01T22:33:46.943Z,77.48
2023-03-01T22:34:46.945Z,79.12
2023-03-01T22:35:47.018Z,77.53
2023-03-01T22:36:47.508Z,78.43
2023-03-01T22:37:47.019Z,76.30
2023-03-01T22:38:47.057Z,79.20
2023-03-01T22:39:47.071Z,77.22
2023-03-01T22:40:47.099Z,76.54
2023-03-01T22:41:47.124Z,76.28
2023-03-01T22:42:47.149Z,75.82
2023-03-01T22:43:47.177Z,79.25
2023-03-01T22:44:47.208Z,75.68
2023-03-01T22:45:47.279Z,76.15
2023-03-01T22:46:47.316Z,74.55
2023-03-01T22:47:47.317Z,77.16
2023-03-01T22:48:47.349Z,75.27
2023-03-01T22:49:47.406Z,74.13
2023-03-01T22:50:47.444Z,76.06
2023-03-01T22:51:48.064Z,75.64
2023-03-01T22:52:47.578Z,77.77
2023-03-01T22:53:47.561Z,75.66
2023-03-01T22:54:47.592Z,76.01
2023-03-01T22:55:47.615Z,72.68
2023-03-01T22:56:47.657Z,78.24
2023-03-01T22:57:47.687Z,75.73
2023-03-01T22:58:47.729Z,76.19
2023-03-01T22:59:47.773Z,76.32
2023-03-01T23:00:47.815Z,74.08
2023-03-01T23:01:48.455Z,73.52
2023-03-01T23:02:47.996Z,71.34
2023-03-01T23:03:47.903Z,74.96
2023-03-01T23:04:47.944Z,76.72
2023-03-01T23:05:47.972Z,72.23
2023-03-01T23:06:48.012Z,73.46
2023-03-01T23:07:48.046Z,73.59
2023-03-01T23:08:48.079Z,71.68
2023-03-01T23:09:50.613Z,73.20
2023-03-01T23:10:48.153Z,73.76
2023-03-01T23:11:48.171Z,75.74
2023-03-01T23:12:48.203Z,74.00
2023-03-01T23:13:48.217Z,72.79
2023-03-01T23:14:48.298Z,71.69
2023-03-01T23:15:48.267Z,73.91
2023-03-01T23:16:48.343Z,74.80
2023-03-01T23:17:48.304Z,73.20
2023-03-01T23:18:48.398Z,77.36
2023-03-01T23:19:48.360Z,73.34
2023-03-01T23:20:48.391Z,73.40
2023-03-01T23:21:48.415Z,74.21
2023-03-01T23:22:48.427Z,71.87
2023-03-01T23:23:48.504Z,69.96
2023-03-01T23:24:48.479Z,74.96
2023-03-01T23:25:48.496Z,73.40
2023-03-01T23:26:48.518Z,70.92
2023-03-01T23:27:48.552Z,71.38
2023-03-01T23:28:48.567Z,70.11
2023-03-01T23:29:48.669Z,71.67
2023-03-01T23:30:48.690Z,72.60
2023-03-01T23:31:48.641Z,70.51
2023-03-01T23:32:48.663Z,70.64
2023-03-01T23:33:48.696Z,71.18
2023-03-01T23:34:48.730Z,73.46
2023-03-01T23:35:48.775Z,69.74
2023-03-01T23:36:48.791Z,71.93
2023-03-01T23:37:48.819Z,71.00
2023-03-01T23:38:48.843Z,69.32
2023-03-01T23:39:48.862Z,72.70
2023-03-01T23:40:48.899Z,70.26
2023-03-01T23:41:48.924Z,71.24
2023-03-01T23:42:48.949Z,70.11
2023-03-01T23:43:48.983Z,70.38
2023-03-01T23:44:49.002Z,70.58
2023-03-01T23:45:49.086Z,70.75
2023-03-01T23:46:49.053Z,70.48
2023-03-01T23:47:49.089Z,70.58
2023-03-01T23:48:49.116Z,70.83
2023-03-01T23:49:49.150Z,71.40
2023-03-01T23:50:49.225Z,70.42
2023-03-01T23:51:49.194Z,71.01
2023-03-01T23:52:49.216Z,70.22
2023-03-01T23:53:49.321Z,70.63
2023-03-01T23:54:49.267Z,69.14
2023-03-01T23:55:49.293Z,71.16
2023-03-01T23:56:49.323Z,71.70
2023-03-01T23:57:49.346Z,69.20
2023-03-01T23:58:49.361Z,70.22
2023-03-01T23:59:49.395Z,68.56
